sensor_id;sensor_type;location;lat;lon;timestamp;P1;durP1;ratioP1;P2;durP2;ratioP2
36001;SDS011;22070;50.922;5.430;2023-01-05T00:01:17;20.30;;;2.90;;
36001;SDS011;22070;50.922;5.430;2023-01-05T00:03:43;25.83;;;3.40;;
36001;SDS011;22070;50.922;5.430;2023-01-05T00:06:09;24.70;;;3.13;;
36001;SDS011;22070;50.922;5.430;2023-01-05T00:08:37;24.00;;;3.30;;
36001;SDS011;22070;50.922;5.430;2023-01-05T00:11:09;20.15;;;3.60;;
36001;SDS011;22070;50.922;5.430;2023-01-05T00:13:56;18.17;;;3.20;;
36001;SDS011;22070;50.922;5.430;2023-01-05T00:16:40;24.80;;;3.33;;
36001;SDS011;22070;50.922;5.430;2023-01-05T00:19:25;22.20;;;3.40;;
36001;SDS011;22070;50.922;5.430;2023-01-05T00:22:13;17.30;;;2.40;;
36001;SDS011;22070;50.922;5.430;2023-01-05T00:25:00;16.42;;;2.70;;
36001;SDS011;22070;50.922;5.430;2023-01-05T00:27:31;23.67;;;3.40;;
36001;SDS011;22070;50.922;5.430;2023-01-05T00:29:57;17.63;;;2.90;;
36001;SDS011;22070;50.922;5.430;2023-01-05T00:32:23;22.50;;;3.37;;
36001;SDS011;22070;50.922;5.430;2023-01-05T00:34:50;25.65;;;5.13;;
36001;SDS011;22070;50.922;5.430;2023-01-05T00:37:19;26.17;;;3.80;;
36001;SDS011;22070;50.922;5.430;2023-01-05T00:39:49;17.85;;;3.63;;
36001;SDS011;22070;50.922;5.430;2023-01-05T00:42:15;21.33;;;2.80;;
36001;SDS011;22070;50.922;5.430;2023-01-05T00:44:41;23.55;;;3.30;;
36001;SDS011;22070;50.922;5.430;2023-01-05T00:47:06;26.92;;;3.67;;
36001;SDS011;22070;50.922;5.430;2023-01-05T00:49:32;28.53;;;4.20;;
36001;SDS011;22070;50.922;5.430;2023-01-05T00:51:58;24.67;;;3.60;;
36001;SDS011;22070;50.922;5.430;2023-01-05T00:54:24;28.67;;;4.47;;
36001;SDS011;22070;50.922;5.430;2023-01-05T00:56:49;21.63;;;3.10;;
36001;SDS011;22070;50.922;5.430;2023-01-05T00:59:15;22.43;;;3.07;;
36001;SDS011;22070;50.922;5.430;2023-01-05T01:01:48;24.70;;;3.17;;
36001;SDS011;22070;50.922;5.430;2023-01-05T01:04:15;23.38;;;3.33;;
36001;SDS011;22070;50.922;5.430;2023-01-05T01:06:41;21.67;;;3.25;;
36001;SDS011;22070;50.922;5.430;2023-01-05T01:09:08;31.67;;;4.30;;
36001;SDS011;22070;50.922;5.430;2023-01-05T01:11:34;22.95;;;3.17;;
36001;SDS011;22070;50.922;5.430;2023-01-05T01:14:00;21.40;;;3.25;;
36001;SDS011;22070;50.922;5.430;2023-01-05T01:16:26;32.05;;;4.25;;
36001;SDS011;22070;50.922;5.430;2023-01-05T01:18:51;23.48;;;2.97;;
36001;SDS011;22070;50.922;5.430;2023-01-05T01:21:17;25.15;;;3.83;;
36001;SDS011;22070;50.922;5.430;2023-01-05T01:23:43;26.50;;;3.70;;
36001;SDS011;22070;50.922;5.430;2023-01-05T01:26:10;19.93;;;3.13;;
36001;SDS011;22070;50.922;5.430;2023-01-05T01:28:37;28.95;;;4.38;;
36001;SDS011;22070;50.922;5.430;2023-01-05T01:31:03;28.85;;;4.03;;
36001;SDS011;22070;50.922;5.430;2023-01-05T01:33:29;20.77;;;3.20;;
36001;SDS011;22070;50.922;5.430;2023-01-05T01:36:02;29.57;;;2.97;;
36001;SDS011;22070;50.922;5.430;2023-01-05T01:38:28;28.98;;;3.33;;
36001;SDS011;22070;50.922;5.430;2023-01-05T01:43:40;33.63;;;4.47;;
36001;SDS011;22070;50.922;5.430;2023-01-05T01:46:07;24.83;;;3.60;;
36001;SDS011;22070;50.922;5.430;2023-01-05T01:48:36;21.67;;;3.17;;
36001;SDS011;22070;50.922;5.430;2023-01-05T01:51:05;22.90;;;3.70;;
36001;SDS011;22070;50.922;5.430;2023-01-05T01:53:37;26.33;;;3.97;;
36001;SDS011;22070;50.922;5.430;2023-01-05T01:56:06;22.23;;;3.50;;
36001;SDS011;22070;50.922;5.430;2023-01-05T01:58:35;26.30;;;3.45;;
36001;SDS011;22070;50.922;5.430;2023-01-05T02:01:02;37.67;;;4.03;;
36001;SDS011;22070;50.922;5.430;2023-01-05T02:03:28;21.50;;;3.85;;
36001;SDS011;22070;50.922;5.430;2023-01-05T02:05:55;24.77;;;3.70;;
36001;SDS011;22070;50.922;5.430;2023-01-05T02:08:21;31.27;;;3.60;;
36001;SDS011;22070;50.922;5.430;2023-01-05T02:30:26;28.83;;;3.72;;
36001;SDS011;22070;50.922;5.430;2023-01-05T02:32:55;25.15;;;4.97;;
36001;SDS011;22070;50.922;5.430;2023-01-05T02:36:12;35.83;;;4.75;;
36001;SDS011;22070;50.922;5.430;2023-01-05T02:40:52;26.73;;;3.83;;
36001;SDS011;22070;50.922;5.430;2023-01-05T02:43:21;22.75;;;3.92;;
36001;SDS011;22070;50.922;5.430;2023-01-05T02:45:47;26.88;;;3.70;;
36001;SDS011;22070;50.922;5.430;2023-01-05T02:48:13;27.85;;;3.95;;
36001;SDS011;22070;50.922;5.430;2023-01-05T02:50:47;19.10;;;2.63;;
36001;SDS011;22070;50.922;5.430;2023-01-05T02:53:26;21.17;;;3.38;;
36001;SDS011;22070;50.922;5.430;2023-01-05T02:56:05;27.55;;;3.88;;
36001;SDS011;22070;50.922;5.430;2023-01-05T02:58:40;27.17;;;3.35;;
36001;SDS011;22070;50.922;5.430;2023-01-05T03:03:59;36.83;;;3.95;;
36001;SDS011;22070;50.922;5.430;2023-01-05T03:06:37;21.73;;;3.22;;
36001;SDS011;22070;50.922;5.430;2023-01-05T03:09:11;27.45;;;4.18;;
36001;SDS011;22070;50.922;5.430;2023-01-05T03:11:49;33.72;;;3.40;;
36001;SDS011;22070;50.922;5.430;2023-01-05T03:14:47;28.20;;;3.95;;
36001;SDS011;22070;50.922;5.430;2023-01-05T03:17:19;27.85;;;3.10;;
36001;SDS011;22070;50.922;5.430;2023-01-05T03:19:50;34.28;;;4.22;;
36001;SDS011;22070;50.922;5.430;2023-01-05T03:22:20;23.27;;;3.63;;
36001;SDS011;22070;50.922;5.430;2023-01-05T03:25:11;30.60;;;3.85;;
36001;SDS011;22070;50.922;5.430;2023-01-05T03:27:58;25.67;;;4.07;;
36001;SDS011;22070;50.922;5.430;2023-01-05T03:34:00;28.05;;;3.63;;
36001;SDS011;22070;50.922;5.430;2023-01-05T03:36:57;26.20;;;4.40;;
36001;SDS011;22070;50.922;5.430;2023-01-05T03:39:26;32.45;;;4.20;;
36001;SDS011;22070;50.922;5.430;2023-01-05T03:41:53;26.58;;;4.25;;
36001;SDS011;22070;50.922;5.430;2023-01-05T03:44:20;29.40;;;4.18;;
36001;SDS011;22070;50.922;5.430;2023-01-05T03:46:46;34.00;;;3.88;;
36001;SDS011;22070;50.922;5.430;2023-01-05T03:49:12;31.25;;;4.05;;
36001;SDS011;22070;50.922;5.430;2023-01-05T03:51:37;27.55;;;3.97;;
36001;SDS011;22070;50.922;5.430;2023-01-05T03:54:03;27.60;;;3.60;;
36001;SDS011;22070;50.922;5.430;2023-01-05T03:56:29;30.90;;;3.47;;
36001;SDS011;22070;50.922;5.430;2023-01-05T03:58:55;32.20;;;4.32;;
36001;SDS011;22070;50.922;5.430;2023-01-05T04:01:20;26.15;;;3.55;;
36001;SDS011;22070;50.922;5.430;2023-01-05T04:03:46;28.05;;;4.05;;
36001;SDS011;22070;50.922;5.430;2023-01-05T04:06:12;20.97;;;2.87;;
36001;SDS011;22070;50.922;5.430;2023-01-05T04:08:37;30.30;;;3.67;;
36001;SDS011;22070;50.922;5.430;2023-01-05T04:11:16;30.90;;;3.73;;
36001;SDS011;22070;50.922;5.430;2023-01-05T04:13:43;28.15;;;4.05;;
36001;SDS011;22070;50.922;5.430;2023-01-05T04:16:09;37.95;;;4.90;;
36001;SDS011;22070;50.922;5.430;2023-01-05T04:18:35;30.80;;;4.03;;
36001;SDS011;22070;50.922;5.430;2023-01-05T04:21:01;29.58;;;4.13;;
36001;SDS011;22070;50.922;5.430;2023-01-05T04:23:27;28.20;;;4.07;;
36001;SDS011;22070;50.922;5.430;2023-01-05T04:25:52;27.67;;;4.07;;
36001;SDS011;22070;50.922;5.430;2023-01-05T04:28:18;30.30;;;4.40;;
36001;SDS011;22070;50.922;5.430;2023-01-05T04:30:44;30.13;;;3.85;;
36001;SDS011;22070;50.922;5.430;2023-01-05T04:33:13;33.35;;;4.35;;
36001;SDS011;22070;50.922;5.430;2023-01-05T04:35:39;31.50;;;4.60;;
36001;SDS011;22070;50.922;5.430;2023-01-05T04:38:04;25.73;;;3.67;;
36001;SDS011;22070;50.922;5.430;2023-01-05T04:40:30;27.77;;;3.30;;
36001;SDS011;22070;50.922;5.430;2023-01-05T04:42:56;19.25;;;3.42;;
36001;SDS011;22070;50.922;5.430;2023-01-05T04:45:21;26.98;;;4.07;;
36001;SDS011;22070;50.922;5.430;2023-01-05T04:47:47;28.10;;;4.40;;
36001;SDS011;22070;50.922;5.430;2023-01-05T04:50:12;24.10;;;3.83;;
36001;SDS011;22070;50.922;5.430;2023-01-05T04:52:38;29.43;;;4.00;;
36001;SDS011;22070;50.922;5.430;2023-01-05T04:55:04;38.33;;;5.53;;
36001;SDS011;22070;50.922;5.430;2023-01-05T04:57:30;31.30;;;4.05;;
36001;SDS011;22070;50.922;5.430;2023-01-05T04:59:56;30.05;;;3.90;;
36001;SDS011;22070;50.922;5.430;2023-01-05T05:02:21;31.52;;;4.97;;
36001;SDS011;22070;50.922;5.430;2023-01-05T05:04:47;30.57;;;4.13;;
36001;SDS011;22070;50.922;5.430;2023-01-05T05:07:13;28.60;;;3.70;;
36001;SDS011;22070;50.922;5.430;2023-01-05T05:09:38;27.20;;;4.10;;
36001;SDS011;22070;50.922;5.430;2023-01-05T05:12:04;28.75;;;3.97;;
36001;SDS011;22070;50.922;5.430;2023-01-05T05:14:30;25.00;;;4.03;;
36001;SDS011;22070;50.922;5.430;2023-01-05T05:16:55;27.33;;;3.78;;
36001;SDS011;22070;50.922;5.430;2023-01-05T05:19:21;26.80;;;3.45;;
36001;SDS011;22070;50.922;5.430;2023-01-05T05:21:47;27.50;;;3.83;;
36001;SDS011;22070;50.922;5.430;2023-01-05T05:24:12;22.00;;;3.33;;
36001;SDS011;22070;50.922;5.430;2023-01-05T05:26:38;26.70;;;4.72;;
36001;SDS011;22070;50.922;5.430;2023-01-05T05:29:03;28.60;;;4.10;;
36001;SDS011;22070;50.922;5.430;2023-01-05T05:31:29;37.05;;;3.92;;
36001;SDS011;22070;50.922;5.430;2023-01-05T05:33:55;29.65;;;3.42;;
36001;SDS011;22070;50.922;5.430;2023-01-05T05:36:21;28.20;;;3.83;;
36001;SDS011;22070;50.922;5.430;2023-01-05T05:38:47;32.27;;;4.70;;
36001;SDS011;22070;50.922;5.430;2023-01-05T05:41:12;29.67;;;4.57;;
36001;SDS011;22070;50.922;5.430;2023-01-05T05:43:38;34.17;;;3.95;;
36001;SDS011;22070;50.922;5.430;2023-01-05T05:46:04;26.70;;;3.65;;
36001;SDS011;22070;50.922;5.430;2023-01-05T05:48:29;28.93;;;4.03;;
36001;SDS011;22070;50.922;5.430;2023-01-05T05:50:55;28.93;;;3.93;;
36001;SDS011;22070;50.922;5.430;2023-01-05T05:53:21;34.47;;;4.50;;
36001;SDS011;22070;50.922;5.430;2023-01-05T05:55:47;21.95;;;3.55;;
36001;SDS011;22070;50.922;5.430;2023-01-05T05:58:13;33.15;;;4.07;;
36001;SDS011;22070;50.922;5.430;2023-01-05T06:00:40;25.33;;;3.97;;
36001;SDS011;22070;50.922;5.430;2023-01-05T06:03:05;28.52;;;3.83;;
36001;SDS011;22070;50.922;5.430;2023-01-05T06:05:31;22.60;;;3.97;;
36001;SDS011;22070;50.922;5.430;2023-01-05T06:07:57;26.60;;;3.75;;
36001;SDS011;22070;50.922;5.430;2023-01-05T06:10:22;23.52;;;3.60;;
36001;SDS011;22070;50.922;5.430;2023-01-05T06:12:48;29.13;;;3.22;;
36001;SDS011;22070;50.922;5.430;2023-01-05T06:15:14;29.85;;;4.30;;
36001;SDS011;22070;50.922;5.430;2023-01-05T06:17:39;24.20;;;3.90;;
36001;SDS011;22070;50.922;5.430;2023-01-05T06:20:05;24.17;;;3.97;;
36001;SDS011;22070;50.922;5.430;2023-01-05T06:22:32;29.08;;;4.30;;
36001;SDS011;22070;50.922;5.430;2023-01-05T06:24:58;31.23;;;4.47;;
36001;SDS011;22070;50.922;5.430;2023-01-05T06:27:23;28.05;;;3.70;;
36001;SDS011;22070;50.922;5.430;2023-01-05T06:29:49;36.17;;;4.33;;
36001;SDS011;22070;50.922;5.430;2023-01-05T06:32:15;29.58;;;4.25;;
36001;SDS011;22070;50.922;5.430;2023-01-05T06:34:40;27.43;;;4.07;;
36001;SDS011;22070;50.922;5.430;2023-01-05T06:37:06;30.70;;;4.83;;
36001;SDS011;22070;50.922;5.430;2023-01-05T06:39:32;23.45;;;4.28;;
36001;SDS011;22070;50.922;5.430;2023-01-05T06:41:57;43.45;;;4.72;;
36001;SDS011;22070;50.922;5.430;2023-01-05T06:44:23;28.27;;;4.27;;
36001;SDS011;22070;50.922;5.430;2023-01-05T06:46:48;33.20;;;3.50;;
36001;SDS011;22070;50.922;5.430;2023-01-05T06:49:14;30.10;;;4.22;;
36001;SDS011;22070;50.922;5.430;2023-01-05T06:51:40;37.63;;;4.75;;
36001;SDS011;22070;50.922;5.430;2023-01-05T06:54:06;34.50;;;5.03;;
36001;SDS011;22070;50.922;5.430;2023-01-05T06:56:31;33.90;;;4.13;;
36001;SDS011;22070;50.922;5.430;2023-01-05T06:58:57;25.83;;;3.77;;
36001;SDS011;22070;50.922;5.430;2023-01-05T07:01:23;34.50;;;4.40;;
36001;SDS011;22070;50.922;5.430;2023-01-05T07:03:48;35.80;;;4.93;;
36001;SDS011;22070;50.922;5.430;2023-01-05T07:06:14;37.35;;;4.70;;
36001;SDS011;22070;50.922;5.430;2023-01-05T07:08:40;32.63;;;4.37;;
36001;SDS011;22070;50.922;5.430;2023-01-05T07:11:06;35.38;;;4.35;;
36001;SDS011;22070;50.922;5.430;2023-01-05T07:13:32;28.55;;;4.35;;
36001;SDS011;22070;50.922;5.430;2023-01-05T07:15:58;26.65;;;3.65;;
36001;SDS011;22070;50.922;5.430;2023-01-05T07:18:24;35.70;;;4.60;;
36001;SDS011;22070;50.922;5.430;2023-01-05T07:20:49;35.58;;;4.50;;
36001;SDS011;22070;50.922;5.430;2023-01-05T07:23:15;31.10;;;4.13;;
36001;SDS011;22070;50.922;5.430;2023-01-05T07:25:41;39.00;;;5.95;;
36001;SDS011;22070;50.922;5.430;2023-01-05T07:28:06;30.60;;;5.07;;
36001;SDS011;22070;50.922;5.430;2023-01-05T07:30:32;30.75;;;4.57;;
36001;SDS011;22070;50.922;5.430;2023-01-05T07:32:58;35.67;;;4.80;;
36001;SDS011;22070;50.922;5.430;2023-01-05T07:35:24;31.77;;;4.50;;
36001;SDS011;22070;50.922;5.430;2023-01-05T07:37:51;34.58;;;4.95;;
36001;SDS011;22070;50.922;5.430;2023-01-05T07:40:16;32.73;;;4.10;;
36001;SDS011;22070;50.922;5.430;2023-01-05T07:42:42;35.83;;;5.30;;
36001;SDS011;22070;50.922;5.430;2023-01-05T07:45:08;39.20;;;4.88;;
36001;SDS011;22070;50.922;5.430;2023-01-05T07:47:34;38.00;;;4.67;;
36001;SDS011;22070;50.922;5.430;2023-01-05T07:50:02;33.78;;;5.40;;
36001;SDS011;22070;50.922;5.430;2023-01-05T07:52:28;25.40;;;4.05;;
36001;SDS011;22070;50.922;5.430;2023-01-05T07:54:54;38.50;;;4.28;;
36001;SDS011;22070;50.922;5.430;2023-01-05T07:57:22;36.45;;;4.60;;
36001;SDS011;22070;50.922;5.430;2023-01-05T07:59:47;34.38;;;4.88;;
36001;SDS011;22070;50.922;5.430;2023-01-05T08:02:13;40.03;;;5.20;;
36001;SDS011;22070;50.922;5.430;2023-01-05T08:04:39;35.60;;;4.43;;
36001;SDS011;22070;50.922;5.430;2023-01-05T08:07:05;33.58;;;5.10;;
36001;SDS011;22070;50.922;5.430;2023-01-05T08:09:35;34.22;;;4.30;;
36001;SDS011;22070;50.922;5.430;2023-01-05T08:12:20;32.35;;;4.47;;
36001;SDS011;22070;50.922;5.430;2023-01-05T08:14:45;24.08;;;4.55;;
36001;SDS011;22070;50.922;5.430;2023-01-05T08:17:11;25.47;;;4.33;;
36001;SDS011;22070;50.922;5.430;2023-01-05T08:19:37;30.87;;;3.97;;
36001;SDS011;22070;50.922;5.430;2023-01-05T08:22:02;34.72;;;5.22;;
36001;SDS011;22070;50.922;5.430;2023-01-05T08:24:28;33.35;;;5.22;;
36001;SDS011;22070;50.922;5.430;2023-01-05T08:26:54;32.63;;;4.97;;
36001;SDS011;22070;50.922;5.430;2023-01-05T08:29:19;38.27;;;4.57;;
36001;SDS011;22070;50.922;5.430;2023-01-05T08:31:45;34.15;;;4.22;;
36001;SDS011;22070;50.922;5.430;2023-01-05T08:34:11;29.08;;;4.40;;
36001;SDS011;22070;50.922;5.430;2023-01-05T08:36:37;33.83;;;4.50;;
36001;SDS011;22070;50.922;5.430;2023-01-05T08:39:04;37.92;;;5.07;;
36001;SDS011;22070;50.922;5.430;2023-01-05T08:41:31;34.05;;;5.10;;
36001;SDS011;22070;50.922;5.430;2023-01-05T08:44:00;35.20;;;5.43;;
36001;SDS011;22070;50.922;5.430;2023-01-05T08:46:28;37.80;;;5.70;;
36001;SDS011;22070;50.922;5.430;2023-01-05T08:48:57;34.65;;;4.32;;
36001;SDS011;22070;50.922;5.430;2023-01-05T08:51:24;41.03;;;5.32;;
36001;SDS011;22070;50.922;5.430;2023-01-05T08:53:50;40.13;;;4.75;;
36001;SDS011;22070;50.922;5.430;2023-01-05T08:56:17;28.25;;;4.20;;
36001;SDS011;22070;50.922;5.430;2023-01-05T08:58:43;30.45;;;4.75;;
36001;SDS011;22070;50.922;5.430;2023-01-05T09:01:09;27.90;;;4.43;;
36001;SDS011;22070;50.922;5.430;2023-01-05T09:03:37;38.65;;;4.80;;
36001;SDS011;22070;50.922;5.430;2023-01-05T09:06:03;37.17;;;4.70;;
36001;SDS011;22070;50.922;5.430;2023-01-05T09:08:31;26.95;;;3.80;;
36001;SDS011;22070;50.922;5.430;2023-01-05T09:11:05;24.88;;;4.30;;
36001;SDS011;22070;50.922;5.430;2023-01-05T09:13:38;23.20;;;3.88;;
36001;SDS011;22070;50.922;5.430;2023-01-05T09:16:09;33.72;;;5.15;;
36001;SDS011;22070;50.922;5.430;2023-01-05T09:18:36;26.90;;;3.85;;
36001;SDS011;22070;50.922;5.430;2023-01-05T09:21:03;36.15;;;4.18;;
36001;SDS011;22070;50.922;5.430;2023-01-05T09:25:56;28.90;;;4.65;;
36001;SDS011;22070;50.922;5.430;2023-01-05T09:28:21;32.38;;;4.03;;
36001;SDS011;22070;50.922;5.430;2023-01-05T09:30:47;39.38;;;4.55;;
36001;SDS011;22070;50.922;5.430;2023-01-05T09:33:13;26.73;;;3.80;;
36001;SDS011;22070;50.922;5.430;2023-01-05T09:35:38;29.67;;;4.47;;
36001;SDS011;22070;50.922;5.430;2023-01-05T09:38:04;35.80;;;4.78;;
36001;SDS011;22070;50.922;5.430;2023-01-05T09:40:30;37.83;;;5.50;;
36001;SDS011;22070;50.922;5.430;2023-01-05T09:43:02;29.80;;;4.05;;
36001;SDS011;22070;50.922;5.430;2023-01-05T09:45:29;28.77;;;3.95;;
36001;SDS011;22070;50.922;5.430;2023-01-05T09:47:54;34.23;;;4.40;;
36001;SDS011;22070;50.922;5.430;2023-01-05T09:52:50;37.42;;;4.47;;
36001;SDS011;22070;50.922;5.430;2023-01-05T09:55:22;39.83;;;5.00;;
36001;SDS011;22070;50.922;5.430;2023-01-05T10:00:23;38.83;;;4.13;;
36001;SDS011;22070;50.922;5.430;2023-01-05T10:02:54;31.60;;;4.72;;
36001;SDS011;22070;50.922;5.430;2023-01-05T10:05:26;27.50;;;4.10;;
36001;SDS011;22070;50.922;5.430;2023-01-05T10:07:54;46.03;;;4.93;;
36001;SDS011;22070;50.922;5.430;2023-01-05T10:13:36;29.95;;;4.38;;
36001;SDS011;22070;50.922;5.430;2023-01-05T10:16:05;39.03;;;4.50;;
36001;SDS011;22070;50.922;5.430;2023-01-05T10:18:34;27.95;;;4.15;;
36001;SDS011;22070;50.922;5.430;2023-01-05T10:29:12;31.77;;;4.60;;
36001;SDS011;22070;50.922;5.430;2023-01-05T10:31:50;33.50;;;4.75;;
36001;SDS011;22070;50.922;5.430;2023-01-05T10:34:31;34.85;;;5.22;;
36001;SDS011;22070;50.922;5.430;2023-01-05T10:37:12;38.65;;;5.03;;
36001;SDS011;22070;50.922;5.430;2023-01-05T10:45:19;30.40;;;4.45;;
36001;SDS011;22070;50.922;5.430;2023-01-05T10:47:46;29.35;;;4.18;;
36001;SDS011;22070;50.922;5.430;2023-01-05T10:52:54;33.58;;;4.45;;
36001;SDS011;22070;50.922;5.430;2023-01-05T10:55:21;39.53;;;4.68;;
36001;SDS011;22070;50.922;5.430;2023-01-05T10:57:48;35.45;;;4.95;;
36001;SDS011;22070;50.922;5.430;2023-01-05T11:00:18;29.13;;;4.55;;
36001;SDS011;22070;50.922;5.430;2023-01-05T11:05:35;34.90;;;5.75;;
36001;SDS011;22070;50.922;5.430;2023-01-05T11:08:06;32.17;;;4.30;;
36001;SDS011;22070;50.922;5.430;2023-01-05T11:15:42;33.70;;;5.00;;
36001;SDS011;22070;50.922;5.430;2023-01-05T11:18:29;28.58;;;4.60;;
36001;SDS011;22070;50.922;5.430;2023-01-05T11:21:10;31.27;;;4.57;;
36001;SDS011;22070;50.922;5.430;2023-01-05T11:23:41;34.20;;;4.38;;
36001;SDS011;22070;50.922;5.430;2023-01-05T11:26:18;27.52;;;4.03;;
36001;SDS011;22070;50.922;5.430;2023-01-05T11:31:31;36.47;;;5.22;;
36001;SDS011;22070;50.922;5.430;2023-01-05T11:33:57;35.10;;;5.30;;
36001;SDS011;22070;50.922;5.430;2023-01-05T11:36:26;32.17;;;4.75;;
36001;SDS011;22070;50.922;5.430;2023-01-05T11:38:55;44.70;;;5.30;;
36001;SDS011;22070;50.922;5.430;2023-01-05T11:41:22;28.95;;;5.28;;
36001;SDS011;22070;50.922;5.430;2023-01-05T11:43:48;35.60;;;5.05;;
36001;SDS011;22070;50.922;5.430;2023-01-05T11:46:16;32.83;;;5.18;;
36001;SDS011;22070;50.922;5.430;2023-01-05T11:48:49;34.75;;;4.75;;
36001;SDS011;22070;50.922;5.430;2023-01-05T11:51:38;31.42;;;4.80;;
36001;SDS011;22070;50.922;5.430;2023-01-05T11:54:04;33.05;;;4.78;;
36001;SDS011;22070;50.922;5.430;2023-01-05T11:56:49;51.70;;;14.15;;
36001;SDS011;22070;50.922;5.430;2023-01-05T11:59:30;36.35;;;8.43;;
36001;SDS011;22070;50.922;5.430;2023-01-05T12:07:32;34.65;;;5.28;;
36001;SDS011;22070;50.922;5.430;2023-01-05T12:10:24;36.22;;;6.32;;
36001;SDS011;22070;50.922;5.430;2023-01-05T12:13:34;30.38;;;4.88;;
36001;SDS011;22070;50.922;5.430;2023-01-05T12:22:07;31.00;;;4.22;;
36001;SDS011;22070;50.922;5.430;2023-01-05T12:25:05;32.50;;;4.55;;
36001;SDS011;22070;50.922;5.430;2023-01-05T12:32:53;32.05;;;3.78;;
36001;SDS011;22070;50.922;5.430;2023-01-05T12:44:12;30.17;;;4.10;;
36001;SDS011;22070;50.922;5.430;2023-01-05T12:49:43;27.83;;;4.53;;
36001;SDS011;22070;50.922;5.430;2023-01-05T12:52:18;27.85;;;4.40;;
36001;SDS011;22070;50.922;5.430;2023-01-05T12:54:56;31.05;;;4.05;;
36001;SDS011;22070;50.922;5.430;2023-01-05T13:02:38;30.75;;;4.68;;
36001;SDS011;22070;50.922;5.430;2023-01-05T13:05:19;33.38;;;4.70;;
36001;SDS011;22070;50.922;5.430;2023-01-05T13:07:56;30.38;;;4.45;;
36001;SDS011;22070;50.922;5.430;2023-01-05T13:10:38;24.15;;;4.07;;
36001;SDS011;22070;50.922;5.430;2023-01-05T13:13:37;32.70;;;5.10;;
36001;SDS011;22070;50.922;5.430;2023-01-05T13:16:15;27.83;;;4.22;;
36001;SDS011;22070;50.922;5.430;2023-01-05T13:18:52;37.53;;;4.75;;
36001;SDS011;22070;50.922;5.430;2023-01-05T13:21:23;34.80;;;4.90;;
36001;SDS011;22070;50.922;5.430;2023-01-05T13:23:52;32.63;;;3.90;;
36001;SDS011;22070;50.922;5.430;2023-01-05T13:26:33;27.65;;;3.85;;
36001;SDS011;22070;50.922;5.430;2023-01-05T13:29:01;32.15;;;4.72;;
36001;SDS011;22070;50.922;5.430;2023-01-05T13:31:31;36.05;;;4.88;;
36001;SDS011;22070;50.922;5.430;2023-01-05T13:42:16;33.78;;;5.43;;
36001;SDS011;22070;50.922;5.430;2023-01-05T13:44:49;25.02;;;4.90;;
36001;SDS011;22070;50.922;5.430;2023-01-05T13:55:15;39.58;;;4.90;;
36001;SDS011;22070;50.922;5.430;2023-01-05T13:57:44;42.15;;;5.18;;
36001;SDS011;22070;50.922;5.430;2023-01-05T14:00:26;33.63;;;5.45;;
36001;SDS011;22070;50.922;5.430;2023-01-05T14:08:22;25.58;;;4.57;;
36001;SDS011;22070;50.922;5.430;2023-01-05T14:13:45;34.10;;;5.32;;
36001;SDS011;22070;50.922;5.430;2023-01-05T14:32:11;38.85;;;4.60;;
36001;SDS011;22070;50.922;5.430;2023-01-05T14:34:51;34.28;;;4.95;;
36001;SDS011;22070;50.922;5.430;2023-01-05T14:39:46;43.15;;;5.65;;
36001;SDS011;22070;50.922;5.430;2023-01-05T14:44:58;45.40;;;5.60;;
36001;SDS011;22070;50.922;5.430;2023-01-05T14:47:39;43.90;;;5.50;;
36001;SDS011;22070;50.922;5.430;2023-01-05T14:55:36;43.88;;;6.55;;
36001;SDS011;22070;50.922;5.430;2023-01-05T14:58:10;35.33;;;5.35;;
36001;SDS011;22070;50.922;5.430;2023-01-05T15:06:07;27.95;;;5.40;;
36001;SDS011;22070;50.922;5.430;2023-01-05T15:19:30;37.22;;;5.43;;
36001;SDS011;22070;50.922;5.430;2023-01-05T15:28:22;35.05;;;5.45;;
36001;SDS011;22070;50.922;5.430;2023-01-05T15:30:47;31.15;;;4.70;;
36001;SDS011;22070;50.922;5.430;2023-01-05T15:33:39;28.25;;;5.35;;
36001;SDS011;22070;50.922;5.430;2023-01-05T15:36:45;33.78;;;5.38;;
36001;SDS011;22070;50.922;5.430;2023-01-05T15:39:29;28.50;;;5.10;;
36001;SDS011;22070;50.922;5.430;2023-01-05T15:41:57;32.72;;;5.13;;
36001;SDS011;22070;50.922;5.430;2023-01-05T15:44:28;37.60;;;5.20;;
36001;SDS011;22070;50.922;5.430;2023-01-05T15:47:04;22.08;;;4.68;;
36001;SDS011;22070;50.922;5.430;2023-01-05T15:49:34;28.95;;;4.63;;
36001;SDS011;22070;50.922;5.430;2023-01-05T15:52:00;31.98;;;5.07;;
36001;SDS011;22070;50.922;5.430;2023-01-05T15:54:30;26.83;;;5.13;;
36001;SDS011;22070;50.922;5.430;2023-01-05T15:56:57;22.17;;;4.55;;
36001;SDS011;22070;50.922;5.430;2023-01-05T15:59:38;30.67;;;6.25;;
36001;SDS011;22070;50.922;5.430;2023-01-05T16:07:42;39.83;;;7.25;;
36001;SDS011;22070;50.922;5.430;2023-01-05T16:10:15;29.20;;;6.35;;
36001;SDS011;22070;50.922;5.430;2023-01-05T16:13:06;25.65;;;6.15;;
36001;SDS011;22070;50.922;5.430;2023-01-05T16:15:34;22.48;;;6.20;;
36001;SDS011;22070;50.922;5.430;2023-01-05T16:18:02;20.98;;;6.10;;
36001;SDS011;22070;50.922;5.430;2023-01-05T16:20:34;22.08;;;6.47;;
36001;SDS011;22070;50.922;5.430;2023-01-05T16:25:52;26.58;;;7.28;;
36001;SDS011;22070;50.922;5.430;2023-01-05T16:28:21;22.45;;;7.60;;
36001;SDS011;22070;50.922;5.430;2023-01-05T16:30:48;20.05;;;7.03;;
36001;SDS011;22070;50.922;5.430;2023-01-05T16:33:25;27.27;;;8.23;;
36001;SDS011;22070;50.922;5.430;2023-01-05T16:36:04;26.30;;;9.00;;
36001;SDS011;22070;50.922;5.430;2023-01-05T16:38:32;25.90;;;7.68;;
36001;SDS011;22070;50.922;5.430;2023-01-05T16:44:16;16.35;;;6.82;;
36001;SDS011;22070;50.922;5.430;2023-01-05T16:46:41;21.52;;;6.90;;
36001;SDS011;22070;50.922;5.430;2023-01-05T16:51:53;16.23;;;7.28;;
36001;SDS011;22070;50.922;5.430;2023-01-05T16:54:21;16.52;;;6.75;;
36001;SDS011;22070;50.922;5.430;2023-01-05T16:59:55;17.65;;;6.82;;
36001;SDS011;22070;50.922;5.430;2023-01-05T17:02:33;12.88;;;7.18;;
36001;SDS011;22070;50.922;5.430;2023-01-05T17:05:06;13.95;;;6.70;;
36001;SDS011;22070;50.922;5.430;2023-01-05T17:07:32;11.83;;;6.10;;
36001;SDS011;22070;50.922;5.430;2023-01-05T17:10:00;13.93;;;6.68;;
36001;SDS011;22070;50.922;5.430;2023-01-05T17:12:26;14.25;;;6.43;;
36001;SDS011;22070;50.922;5.430;2023-01-05T17:14:52;10.02;;;6.07;;
36001;SDS011;22070;50.922;5.430;2023-01-05T17:17:21;13.23;;;6.63;;
36001;SDS011;22070;50.922;5.430;2023-01-05T17:19:48;13.32;;;5.78;;
36001;SDS011;22070;50.922;5.430;2023-01-05T17:22:17;13.10;;;6.10;;
36001;SDS011;22070;50.922;5.430;2023-01-05T17:24:43;13.50;;;5.50;;
36001;SDS011;22070;50.922;5.430;2023-01-05T17:27:09;7.97;;;4.73;;
36001;SDS011;22070;50.922;5.430;2023-01-05T17:29:35;13.70;;;5.97;;
36001;SDS011;22070;50.922;5.430;2023-01-05T17:32:01;11.45;;;6.18;;
36001;SDS011;22070;50.922;5.430;2023-01-05T17:34:28;9.40;;;6.43;;
36001;SDS011;22070;50.922;5.430;2023-01-05T17:36:55;10.90;;;5.20;;
36001;SDS011;22070;50.922;5.430;2023-01-05T17:39:22;13.15;;;6.90;;
36001;SDS011;22070;50.922;5.430;2023-01-05T17:41:48;13.35;;;7.10;;
36001;SDS011;22070;50.922;5.430;2023-01-05T17:44:13;12.23;;;7.30;;
36001;SDS011;22070;50.922;5.430;2023-01-05T17:46:41;12.23;;;7.43;;
36001;SDS011;22070;50.922;5.430;2023-01-05T17:49:11;14.82;;;7.70;;
36001;SDS011;22070;50.922;5.430;2023-01-05T17:51:41;15.70;;;7.93;;
36001;SDS011;22070;50.922;5.430;2023-01-05T17:54:07;13.88;;;8.73;;
36001;SDS011;22070;50.922;5.430;2023-01-05T17:56:33;14.93;;;8.80;;
36001;SDS011;22070;50.922;5.430;2023-01-05T17:58:58;14.10;;;8.27;;
36001;SDS011;22070;50.922;5.430;2023-01-05T18:01:24;13.55;;;6.55;;